createdAt,value
2019-04-20T00:01:05.396Z,4.07
2019-04-20T00:03:38.026Z,4.10
2019-04-20T00:06:06.977Z,4.40
2019-04-20T00:08:39.779Z,4.10
2019-04-20T00:11:14.267Z,4.40
2019-04-20T00:13:47.676Z,4.60
2019-04-20T00:16:10.306Z,4.43
2019-04-20T00:18:47.982Z,4.20
2019-04-20T00:21:22.550Z,4.63
2019-04-20T00:23:53.135Z,3.83
2019-04-20T00:26:56.379Z,5.17
2019-04-20T00:29:17.623Z,4.40
2019-04-20T00:31:43.932Z,5.03
2019-04-20T00:34:11.526Z,4.13
2019-04-20T00:36:32.868Z,4.40
2019-04-20T00:39:06.419Z,4.57
2019-04-20T00:41:40.952Z,4.23
2019-04-20T00:44:12.254Z,4.60
2019-04-20T00:46:49.925Z,4.77
2019-04-20T00:49:22.842Z,4.57
2019-04-20T00:52:07.513Z,4.13
2019-04-20T00:54:11.526Z,4.27
2019-04-20T00:56:41.361Z,4.90
2019-04-20T00:59:25.135Z,4.27
2019-04-20T01:02:02.028Z,4.30
2019-04-20T01:04:30.080Z,4.57
2019-04-20T01:07:13.677Z,4.80
2019-04-20T01:09:43.367Z,4.53
2019-04-20T01:12:18.274Z,4.93
2019-04-20T01:14:51.676Z,4.87
2019-04-20T01:17:14.982Z,4.53
2019-04-20T01:19:44.408Z,4.33
2019-04-20T01:22:18.491Z,4.43
2019-04-20T01:24:46.951Z,4.90
2019-04-20T01:27:29.840Z,4.83
2019-04-20T01:29:51.421Z,5.50
2019-04-20T01:32:27.731Z,4.47
2019-04-20T01:35:01.474Z,5.00
2019-04-20T01:37:32.841Z,4.60
2019-04-20T01:39:55.157Z,4.10
2019-04-20T01:42:23.389Z,4.37
2019-04-20T01:44:55.387Z,4.60
2019-04-20T01:47:32.234Z,4.50
2019-04-20T01:50:03.566Z,4.30
2019-04-20T01:52:34.989Z,4.43
2019-04-20T01:55:22.755Z,4.00
2019-04-20T01:58:00.431Z,4.73
2019-04-20T02:00:29.766Z,4.90
2019-04-20T02:02:59.305Z,4.70
2019-04-20T02:05:30.981Z,4.27
2019-04-20T02:07:59.081Z,4.57
2019-04-20T02:10:39.541Z,4.47
2019-04-20T02:13:02.989Z,4.57
2019-04-20T02:15:38.609Z,5.00
2019-04-20T02:18:16.448Z,4.40
2019-04-20T02:20:51.480Z,4.80
2019-04-20T02:23:17.306Z,4.80
2019-04-20T02:25:35.698Z,4.40
2019-04-20T02:28:22.922Z,5.40
2019-04-20T02:31:20.749Z,4.90
2019-04-20T02:41:44.831Z,4.23
2019-04-20T02:46:44.743Z,5.07
2019-04-20T02:49:23.134Z,4.87
2019-04-20T02:51:41.053Z,4.97
2019-04-20T02:54:16.599Z,5.07
2019-04-20T02:56:47.662Z,4.87
2019-04-20T02:59:44.699Z,4.83
2019-04-20T03:01:36.005Z,5.00
2019-04-20T03:03:51.071Z,4.03
2019-04-20T03:06:30.689Z,4.43
2019-04-20T03:09:09.040Z,4.40
2019-04-20T03:11:52.772Z,4.57
2019-04-20T03:14:09.592Z,4.13
2019-04-20T03:16:39.755Z,4.47
2019-04-20T03:19:14.140Z,4.77
2019-04-20T03:21:45.472Z,4.83
2019-04-20T03:24:19.347Z,4.67
2019-04-20T03:26:47.978Z,4.47
2019-04-20T03:29:40.817Z,5.10
2019-04-20T03:32:49.947Z,4.30
2019-04-20T03:37:26.702Z,4.60
2019-04-20T03:39:46.636Z,4.47
2019-04-20T03:42:03.660Z,5.40
2019-04-20T03:44:35.733Z,4.67
2019-04-20T03:47:08.857Z,4.90
2019-04-20T03:50:14.696Z,4.13
2019-04-20T03:52:30.056Z,4.47
2019-04-20T03:54:57.390Z,4.47
2019-04-20T03:57:58.345Z,4.73
2019-04-20T04:00:43.401Z,4.57
2019-04-20T04:03:31.766Z,4.50
2019-04-20T04:05:55.974Z,4.30
2019-04-20T04:08:23.529Z,4.53
2019-04-20T04:11:06.695Z,5.07
2019-04-20T04:13:20.800Z,4.80
2019-04-20T04:15:57.531Z,4.77
2019-04-20T04:18:29.837Z,4.67
2019-04-20T04:21:01.434Z,4.17
2019-04-20T04:23:40.912Z,4.30
2019-04-20T04:26:12.629Z,4.90
2019-04-20T04:28:43.393Z,4.43
2019-04-20T04:31:16.300Z,4.53
2019-04-20T04:33:55.970Z,5.10
2019-04-20T04:36:18.284Z,4.47
2019-04-20T04:38:53.512Z,5.03
2019-04-20T04:41:25.623Z,4.67
2019-04-20T04:43:54.195Z,4.47
2019-04-20T04:46:05.822Z,4.73
2019-04-20T04:48:40.668Z,4.70
2019-04-20T04:51:14.843Z,5.23
2019-04-20T04:53:47.979Z,4.80
2019-04-20T04:56:13.191Z,5.67
2019-04-20T04:58:40.525Z,4.70
2019-04-20T05:01:16.617Z,4.67
2019-04-20T05:04:05.234Z,4.80
2019-04-20T05:06:26.350Z,4.67
2019-04-20T05:08:49.819Z,4.50
2019-04-20T05:11:17.195Z,4.80
2019-04-20T05:13:55.963Z,4.67
2019-04-20T05:16:38.537Z,4.57
2019-04-20T05:19:13.514Z,4.40
2019-04-20T05:21:49.246Z,4.73
2019-04-20T05:24:26.863Z,4.97
2019-04-20T05:27:07.109Z,4.73
2019-04-20T05:29:21.464Z,5.13
2019-04-20T05:31:53.717Z,4.60
2019-04-20T05:34:39.024Z,4.80
2019-04-20T05:37:18.880Z,4.50
2019-04-20T05:39:47.395Z,4.80
2019-04-20T05:42:12.974Z,5.07
2019-04-20T05:44:46.061Z,4.63
2019-04-20T05:47:19.555Z,4.00
2019-04-20T05:49:48.500Z,4.63
2019-04-20T05:52:31.712Z,4.47
2019-04-20T05:54:51.400Z,5.23
2019-04-20T05:57:25.076Z,5.03
2019-04-20T05:59:56.185Z,6.60
2019-04-20T06:02:23.288Z,6.27
2019-04-20T06:07:27.062Z,5.70
2019-04-20T06:10:00.180Z,5.30
2019-04-20T06:12:32.033Z,4.83
2019-04-20T06:15:09.461Z,4.67
2019-04-20T06:18:05.165Z,4.53
2019-04-20T06:23:34.635Z,5.03
2019-04-20T06:26:24.619Z,4.80
2019-04-20T06:28:33.773Z,4.77
2019-04-20T06:31:10.644Z,5.00
2019-04-20T06:34:31.940Z,4.67
2019-04-20T06:36:56.058Z,5.43
2019-04-20T06:39:36.411Z,4.67
2019-04-20T06:44:33.198Z,4.37
2019-04-20T06:47:10.365Z,4.83
2019-04-20T06:49:33.255Z,4.20
2019-04-20T06:52:15.521Z,4.23
2019-04-20T06:54:43.192Z,4.97
2019-04-20T06:57:18.478Z,4.93
2019-04-20T07:00:03.780Z,4.33
2019-04-20T07:02:21.872Z,4.70
2019-04-20T07:07:22.717Z,4.23
2019-04-20T07:12:16.790Z,4.50
2019-04-20T07:14:42.679Z,4.80
2019-04-20T07:17:34.941Z,4.43
2019-04-20T07:19:56.438Z,5.37
2019-04-20T07:25:01.185Z,4.67
2019-04-20T07:27:29.778Z,4.87
2019-04-20T07:30:04.049Z,4.40
2019-04-20T07:32:38.653Z,4.57
2019-04-20T07:35:20.088Z,5.03
2019-04-20T07:38:07.003Z,4.93
2019-04-20T07:40:17.568Z,4.83
2019-04-20T07:42:48.004Z,4.30
2019-04-20T07:45:22.922Z,4.30
2019-04-20T07:47:45.941Z,4.50
2019-04-20T07:50:13.298Z,4.60
2019-04-20T07:52:38.631Z,4.50
2019-04-20T07:55:33.670Z,4.90
2019-04-20T07:57:42.916Z,4.93
2019-04-20T08:00:26.242Z,5.13
2019-04-20T08:03:03.607Z,4.70
2019-04-20T08:05:27.838Z,5.07
2019-04-20T08:07:53.864Z,4.50
2019-04-20T08:10:34.339Z,5.00
2019-04-20T08:13:09.427Z,4.57
2019-04-20T08:18:06.511Z,4.97
2019-04-20T08:20:39.346Z,4.47
2019-04-20T08:23:12.971Z,4.90
2019-04-20T08:25:36.132Z,4.80
2019-04-20T08:28:22.699Z,4.90
2019-04-20T08:31:06.314Z,4.13
2019-04-20T08:33:44.758Z,4.53
2019-04-20T08:36:19.987Z,4.17
2019-04-20T08:39:07.126Z,4.43
2019-04-20T08:41:15.570Z,4.33
2019-04-20T08:43:57.145Z,5.37
2019-04-20T08:46:20.445Z,4.40
2019-04-20T08:48:51.963Z,4.63
2019-04-20T08:51:22.637Z,4.23
2019-04-20T08:53:53.008Z,4.73
2019-04-20T08:56:13.992Z,5.00
2019-04-20T08:58:34.155Z,4.50
2019-04-20T09:01:08.319Z,4.90
2019-04-20T09:03:46.208Z,4.80
2019-04-20T09:06:19.347Z,4.43
2019-04-20T09:08:51.451Z,4.93
2019-04-20T09:11:26.081Z,4.83
2019-04-20T09:13:46.177Z,4.83
2019-04-20T09:16:11.057Z,4.50
2019-04-20T09:18:50.321Z,4.83
2019-04-20T09:21:25.329Z,5.80
2019-04-20T09:24:10.744Z,5.37
2019-04-20T09:26:37.121Z,4.80
2019-04-20T09:29:12.754Z,5.10
2019-04-20T09:31:39.309Z,5.13
2019-04-20T09:34:25.999Z,5.10
2019-04-20T09:36:53.725Z,4.27
2019-04-20T09:39:24.629Z,4.87
2019-04-20T09:42:01.541Z,5.33
2019-04-20T09:44:31.405Z,5.10
2019-04-20T09:47:00.434Z,4.73
2019-04-20T09:49:42.557Z,4.37
2019-04-20T09:52:13.408Z,5.40
2019-04-20T09:54:52.863Z,4.77
2019-04-20T09:57:22.094Z,4.67
2019-04-20T09:59:53.654Z,4.70
2019-04-20T10:02:16.853Z,4.77
2019-04-20T10:04:39.783Z,4.57
2019-04-20T10:07:15.768Z,4.60
2019-04-20T10:09:44.553Z,4.87
2019-04-20T10:12:11.579Z,4.93
2019-04-20T10:14:40.922Z,4.97
2019-04-20T10:17:11.761Z,5.23
2019-04-20T10:19:42.787Z,5.07
2019-04-20T10:22:13.076Z,4.67
2019-04-20T10:24:45.311Z,4.83
2019-04-20T10:27:14.618Z,5.20
2019-04-20T10:29:44.186Z,4.53
2019-04-20T10:32:15.822Z,4.73
2019-04-20T10:34:44.587Z,4.63
2019-04-20T10:37:19.652Z,4.60
2019-04-20T10:39:49.119Z,5.10
2019-04-20T10:42:18.639Z,4.50
2019-04-20T10:44:48.296Z,4.60
2019-04-20T10:47:18.889Z,4.43
2019-04-20T10:49:49.307Z,4.43
2019-04-20T10:52:20.007Z,4.60
2019-04-20T10:54:50.380Z,4.00
2019-04-20T10:57:19.935Z,4.53
2019-04-20T10:59:49.798Z,4.40
2019-04-20T11:02:19.586Z,4.80
2019-04-20T11:04:48.935Z,4.80
2019-04-20T11:07:18.704Z,4.73
2019-04-20T11:10:00.627Z,4.30
2019-04-20T11:12:20.114Z,4.37
2019-04-20T11:14:50.213Z,4.13
2019-04-20T11:17:20.446Z,4.10
2019-04-20T11:19:49.906Z,4.27
2019-04-20T11:22:20.084Z,4.37
2019-04-20T11:24:50.228Z,4.23
2019-04-20T11:27:20.452Z,4.77
2019-04-20T11:29:50.024Z,4.33
2019-04-20T11:32:20.216Z,4.60
2019-04-20T11:34:49.678Z,4.70
2019-04-20T11:37:19.336Z,4.70
2019-04-20T11:39:48.854Z,4.53
2019-04-20T11:42:19.467Z,5.17
2019-04-20T11:44:48.941Z,4.87
2019-04-20T11:47:18.905Z,5.30
2019-04-20T11:49:49.363Z,5.20
2019-04-20T11:52:21.405Z,4.80
2019-04-20T11:54:50.509Z,5.17
2019-04-20T11:57:20.015Z,5.63
2019-04-20T11:59:50.776Z,5.70
2019-04-20T12:02:37.166Z,5.30
2019-04-20T12:05:13.147Z,5.40
2019-04-20T12:07:58.683Z,5.60
2019-04-20T12:10:29.707Z,5.43
2019-04-20T12:12:59.672Z,5.67
2019-04-20T12:15:32.208Z,5.50
2019-04-20T12:18:01.872Z,5.83
2019-04-20T12:20:32.470Z,5.57
2019-04-20T12:23:02.232Z,5.43
2019-04-20T12:25:34.520Z,5.63
2019-04-20T12:28:03.953Z,6.10
2019-04-20T12:30:35.507Z,5.70
2019-04-20T12:33:05.754Z,5.63
2019-04-20T12:35:36.177Z,5.83
2019-04-20T12:38:07.197Z,5.97
2019-04-20T12:40:37.973Z,5.50
2019-04-20T12:43:27.759Z,5.57
2019-04-20T12:45:57.963Z,5.50
2019-04-20T12:48:27.475Z,6.47
2019-04-20T12:50:57.484Z,5.70
2019-04-20T12:53:27.007Z,5.70
2019-04-20T12:55:56.802Z,5.80
2019-04-20T12:58:26.391Z,5.53
2019-04-20T13:00:56.382Z,5.70
2019-04-20T13:03:25.920Z,5.77
2019-04-20T13:05:56.128Z,5.43
2019-04-20T13:08:33.642Z,5.87
2019-04-20T13:11:08.749Z,5.10
2019-04-20T13:13:40.882Z,6.07
2019-04-20T13:16:14.647Z,4.90
2019-04-20T13:18:45.646Z,4.43
2019-04-20T13:21:15.075Z,5.80
2019-04-20T13:23:44.976Z,6.27
2019-04-20T13:26:15.673Z,5.60
2019-04-20T13:28:46.787Z,5.47
2019-04-20T13:31:17.667Z,5.00
2019-04-20T13:33:47.642Z,5.83
2019-04-20T13:36:17.325Z,5.10
2019-04-20T13:38:47.735Z,5.20
2019-04-20T13:41:17.859Z,5.00
2019-04-20T13:43:48.103Z,5.10
2019-04-20T13:46:18.712Z,5.30
2019-04-20T13:48:48.928Z,4.70
2019-04-20T13:51:18.945Z,4.17
2019-04-20T13:53:48.432Z,5.10
2019-04-20T13:56:19.731Z,5.20
2019-04-20T13:58:59.797Z,5.03
2019-04-20T14:01:30.884Z,4.50
2019-04-20T14:04:05.346Z,4.77
2019-04-20T14:06:35.337Z,4.90
2019-04-20T14:09:07.843Z,4.80
2019-04-20T14:11:37.375Z,4.70
2019-04-20T14:14:08.236Z,4.50
2019-04-20T14:16:39.020Z,5.90
2019-04-20T14:19:09.308Z,4.67
2019-04-20T14:21:38.903Z,4.60
2019-04-20T14:24:08.885Z,4.40
2019-04-20T14:26:40.325Z,4.60
2019-04-20T14:29:10.391Z,4.97
2019-04-20T14:31:39.946Z,4.83
2019-04-20T14:34:09.305Z,4.60
2019-04-20T14:36:39.085Z,5.10
2019-04-20T14:39:10.072Z,5.07
2019-04-20T14:41:40.365Z,5.20
2019-04-20T14:44:10.223Z,4.53
2019-04-20T14:46:40.083Z,5.00
2019-04-20T14:49:10.441Z,4.80
2019-04-20T14:51:39.830Z,4.60
2019-04-20T14:54:09.670Z,4.37
2019-04-20T14:56:39.305Z,3.97
2019-04-20T14:59:13.524Z,4.50
2019-04-20T15:01:44.987Z,4.87
2019-04-20T15:04:17.963Z,5.40
2019-04-20T15:06:46.574Z,4.43
2019-04-20T15:09:16.934Z,4.57
2019-04-20T15:11:46.697Z,5.03
2019-04-20T15:14:16.520Z,5.03
2019-04-20T15:16:46.755Z,4.97
2019-04-20T15:19:17.917Z,4.47
2019-04-20T15:21:55.753Z,4.40
2019-04-20T15:24:25.231Z,4.90
2019-04-20T15:26:54.737Z,4.77
2019-04-20T15:29:24.296Z,4.50
2019-04-20T15:31:54.301Z,4.60
2019-04-20T15:34:24.772Z,4.10
2019-04-20T15:36:54.200Z,4.33
2019-04-20T15:39:23.533Z,4.23
2019-04-20T15:41:53.631Z,4.63
2019-04-20T15:44:23.247Z,4.70
2019-04-20T15:46:53.155Z,4.30
2019-04-20T15:49:23.722Z,4.57
2019-04-20T15:51:53.376Z,5.13
2019-04-20T15:54:23.245Z,4.23
2019-04-20T15:56:58.820Z,4.93
2019-04-20T15:59:24.353Z,4.70
2019-04-20T16:02:09.011Z,4.93
2019-04-20T16:04:56.485Z,4.13
2019-04-20T16:07:25.953Z,4.60
2019-04-20T16:09:55.298Z,4.10
2019-04-20T16:12:24.795Z,4.43
2019-04-20T16:14:55.246Z,4.40
2019-04-20T16:17:33.772Z,4.33
2019-04-20T16:20:03.935Z,4.33
2019-04-20T16:22:28.924Z,4.67
2019-04-20T16:25:15.490Z,4.50
2019-04-20T16:27:45.625Z,4.37
2019-04-20T16:30:21.155Z,4.00
2019-04-20T16:32:50.519Z,4.03
2019-04-20T16:35:20.335Z,4.30
2019-04-20T16:37:50.765Z,4.27
2019-04-20T16:40:20.247Z,4.00
2019-04-20T16:42:50.205Z,4.60
2019-04-20T16:45:21.231Z,4.60
2019-04-20T16:47:50.721Z,4.30
2019-04-20T16:50:20.138Z,4.20
2019-04-20T16:52:50.671Z,4.30
2019-04-20T16:55:20.702Z,5.30
2019-04-20T16:57:51.715Z,4.27
2019-04-20T17:00:23.136Z,4.10
2019-04-20T17:02:54.217Z,4.60
2019-04-20T17:05:25.122Z,4.57
2019-04-20T17:07:57.367Z,4.17
2019-04-20T17:10:28.731Z,4.23
2019-04-20T17:12:59.792Z,4.90
2019-04-20T17:15:29.673Z,4.63
2019-04-20T17:17:59.373Z,4.30
2019-04-20T17:20:28.901Z,3.90
2019-04-20T17:22:58.532Z,4.40
2019-04-20T17:25:28.142Z,4.67
2019-04-20T17:28:05.249Z,4.60
2019-04-20T17:30:40.001Z,4.30
2019-04-20T17:33:27.959Z,4.63
2019-04-20T17:36:08.467Z,4.00
2019-04-20T17:38:34.680Z,3.83
2019-04-20T17:41:14.644Z,4.37
2019-04-20T17:43:38.915Z,3.90
2019-04-20T17:46:10.114Z,4.10
2019-04-20T17:48:46.820Z,4.00
2019-04-20T17:51:29.191Z,5.40
2019-04-20T17:53:49.141Z,6.60
2019-04-20T17:56:12.161Z,4.90
2019-04-20T17:58:41.632Z,4.57
2019-04-20T18:01:41.357Z,3.63
2019-04-20T18:04:36.113Z,4.33
2019-04-20T18:06:47.929Z,3.87
2019-04-20T18:09:34.542Z,3.50
2019-04-20T18:11:46.404Z,4.00
2019-04-20T18:14:28.313Z,4.07
2019-04-20T18:17:02.268Z,3.60
2019-04-20T18:19:22.846Z,3.63
2019-04-20T18:21:51.661Z,4.00
2019-04-20T18:24:42.351Z,4.20
2019-04-20T18:27:16.143Z,3.90
2019-04-20T18:29:41.025Z,4.20
2019-04-20T18:31:57.655Z,3.80
2019-04-20T18:34:29.264Z,4.27
2019-04-20T18:37:02.161Z,4.70
2019-04-20T18:39:38.688Z,4.40
2019-04-20T18:42:09.978Z,4.53
2019-04-20T18:44:54.646Z,4.23
2019-04-20T18:47:23.838Z,4.17
2019-04-20T18:49:46.600Z,4.10
2019-04-20T18:52:06.143Z,4.63
2019-04-20T18:54:40.863Z,4.27
2019-04-20T18:57:11.168Z,5.10
2019-04-20T18:59:43.804Z,4.30
2019-04-20T19:02:16.217Z,5.00
2019-04-20T19:04:40.087Z,4.70
2019-04-20T19:07:10.016Z,4.57
2019-04-20T19:09:40.984Z,4.67
2019-04-20T19:12:14.519Z,4.80
2019-04-20T19:15:13.467Z,4.60
2019-04-20T19:17:46.666Z,4.70
2019-04-20T19:20:07.487Z,4.70
2019-04-20T19:22:38.491Z,5.23
2019-04-20T19:25:16.974Z,5.10
2019-04-20T19:27:48.456Z,5.37
2019-04-20T19:30:26.309Z,5.40
2019-04-20T19:33:00.772Z,5.40
2019-04-20T19:35:26.048Z,5.20
2019-04-20T19:37:53.816Z,5.30
2019-04-20T19:40:31.110Z,5.10
2019-04-20T19:43:02.463Z,4.70
2019-04-20T19:45:44.004Z,5.47
2019-04-20T19:48:05.716Z,5.00
2019-04-20T19:50:41.011Z,4.90
2019-04-20T19:53:20.003Z,5.43
2019-04-20T19:55:39.123Z,5.03
2019-04-20T19:58:07.187Z,4.90
2019-04-20T20:00:51.383Z,5.27
2019-04-20T20:03:19.730Z,4.90
2019-04-20T20:05:51.892Z,6.00
2019-04-20T20:08:24.477Z,4.40
2019-04-20T20:10:52.648Z,4.77
2019-04-20T20:13:27.401Z,5.13
2019-04-20T20:16:02.359Z,4.70
2019-04-20T20:18:39.348Z,4.77
2019-04-20T20:21:11.056Z,4.83
2019-04-20T20:23:27.884Z,4.87
2019-04-20T20:25:57.462Z,5.40
2019-04-20T20:28:37.153Z,5.40
2019-04-20T20:31:10.648Z,5.70
2019-04-20T20:33:46.673Z,5.50
2019-04-20T20:36:08.825Z,5.37
2019-04-20T20:38:38.940Z,5.13
2019-04-20T20:41:12.728Z,5.90
2019-04-20T20:43:44.725Z,5.70
2019-04-20T20:46:16.219Z,5.40
2019-04-20T20:48:57.110Z,5.23
2019-04-20T20:51:27.920Z,5.97
2019-04-20T20:53:52.233Z,5.40
2019-04-20T20:56:18.508Z,5.57
2019-04-20T20:58:53.879Z,6.63
2019-04-20T21:01:19.604Z,5.60
2019-04-20T21:03:46.068Z,5.53
2019-04-20T21:06:16.821Z,5.93
2019-04-20T21:08:50.022Z,6.77
2019-04-20T21:11:20.432Z,5.70
2019-04-20T21:13:49.216Z,6.47
2019-04-20T21:16:23.850Z,6.33
2019-04-20T21:19:03.879Z,7.30
2019-04-20T21:21:37.113Z,6.83
2019-04-20T21:24:00.383Z,6.80
2019-04-20T21:26:30.460Z,6.67
2019-04-20T21:28:55.576Z,6.60
2019-04-20T21:31:28.983Z,6.97
2019-04-20T21:33:57.289Z,7.00
2019-04-20T21:36:29.974Z,7.57
2019-04-20T21:38:58.139Z,7.97
2019-04-20T21:41:29.109Z,7.97
2019-04-20T21:43:59.961Z,6.87
2019-04-20T21:46:38.912Z,6.90
2019-04-20T21:49:13.863Z,7.63
2019-04-20T21:51:42.511Z,8.73
2019-04-20T21:54:03.812Z,8.53
2019-04-20T21:56:38.349Z,7.50
2019-04-20T21:59:14.243Z,7.40
2019-04-20T22:01:39.709Z,7.97
2019-04-20T22:04:08.307Z,8.07
2019-04-20T22:06:38.243Z,8.70
2019-04-20T22:09:10.898Z,8.87
2019-04-20T22:11:40.327Z,8.00
2019-04-20T22:14:17.280Z,7.77
2019-04-20T22:16:46.098Z,8.03
2019-04-20T22:19:27.494Z,7.37
2019-04-20T22:21:53.381Z,8.03
2019-04-20T22:24:34.263Z,7.50
2019-04-20T22:26:58.922Z,7.70
2019-04-20T22:29:16.421Z,7.43
2019-04-20T22:31:52.328Z,7.63
2019-04-20T22:34:20.820Z,8.00
2019-04-20T22:36:50.082Z,7.53
2019-04-20T22:39:33.242Z,7.50
2019-04-20T22:42:00.162Z,7.13
2019-04-20T22:44:28.339Z,8.80
2019-04-20T22:46:58.362Z,7.10
2019-04-20T22:49:44.303Z,7.00
2019-04-20T22:52:13.229Z,8.13
2019-04-20T22:54:46.670Z,7.20
2019-04-20T22:57:09.396Z,7.53
2019-04-20T22:59:41.872Z,7.33
2019-04-20T23:02:06.139Z,7.30
2019-04-20T23:04:35.052Z,6.83
2019-04-20T23:07:05.024Z,7.30
2019-04-20T23:09:43.785Z,7.80
2019-04-20T23:12:11.316Z,7.30
2019-04-20T23:14:38.268Z,7.63
2019-04-20T23:17:08.268Z,8.67
2019-04-20T23:19:46.602Z,8.17
2019-04-20T23:22:13.518Z,10.47
2019-04-20T23:24:41.486Z,9.87
2019-04-20T23:27:18.171Z,8.73
2019-04-20T23:29:43.579Z,8.13
2019-04-20T23:32:14.551Z,13.97
2019-04-20T23:34:44.748Z,11.40
2019-04-20T23:37:20.125Z,10.37
2019-04-20T23:39:47.723Z,10.97
2019-04-20T23:42:32.610Z,10.10
2019-04-20T23:45:07.397Z,8.57
2019-04-20T23:47:46.445Z,8.50
2019-04-20T23:50:38.265Z,9.13
2019-04-20T23:53:08.366Z,10.20
2019-04-20T23:55:19.095Z,9.23
2019-04-20T23:57:55.893Z,10.53
